createdAt,value
2018-06-01T00:00:23.280Z,100201.55
2018-06-01T00:01:29.582Z,100197.48
2018-06-01T00:02:35.925Z,100194.36
2018-06-01T00:03:42.341Z,100192.96
2018-06-01T00:04:48.620Z,100194.69
2018-06-01T00:05:55.020Z,100193.36
2018-06-01T00:07:01.353Z,100197.03
2018-06-01T00:08:08.305Z,100195.36
2018-06-01T00:09:17.985Z,100193.47
2018-06-01T00:10:24.037Z,100193.84
2018-06-01T00:11:30.164Z,100183.70
2018-06-01T00:12:36.552Z,100192.75
2018-06-01T00:13:43.741Z,100193.73
2018-06-01T00:14:51.961Z,100193.57
2018-06-01T00:15:58.576Z,100187.62
2018-06-01T00:17:04.909Z,100189.87
2018-06-01T00:18:11.254Z,100187.64
2018-06-01T00:19:19.391Z,100187.16
2018-06-01T00:20:26.417Z,100194.52
2018-06-01T00:21:32.424Z,100191.85
2018-06-01T00:22:38.844Z,100185.75
2018-06-01T00:23:50.342Z,100187.52
2018-06-01T00:24:56.433Z,100192.09
2018-06-01T00:26:02.932Z,100185.35
2018-06-01T00:27:09.308Z,100187.92
2018-06-01T00:28:16.498Z,100188.64
2018-06-01T00:29:22.834Z,100188.22
2018-06-01T00:30:29.144Z,100189.97
2018-06-01T00:31:35.501Z,100186.59
2018-06-01T00:32:41.585Z,100188.20
2018-06-01T00:33:47.878Z,100186.72
2018-06-01T00:34:54.435Z,100186.17
2018-06-01T00:36:00.913Z,100182.45
2018-06-01T00:37:07.225Z,100189.13
2018-06-01T00:38:13.566Z,100189.89
2018-06-01T00:39:19.969Z,100183.73
2018-06-01T00:40:26.263Z,100189.56
2018-06-01T00:41:32.577Z,100189.84
2018-06-01T00:42:38.921Z,100186.67
2018-06-01T00:43:45.218Z,100189.36
2018-06-01T00:44:51.516Z,100190.27
2018-06-01T00:45:57.520Z,100187.02
2018-06-01T00:47:06.673Z,100190.62
2018-06-01T00:48:12.938Z,100191.23
2018-06-01T00:49:27.415Z,100184.41
2018-06-01T00:50:34.323Z,100191.44
2018-06-01T00:51:42.380Z,100190.38
2018-06-01T00:52:48.813Z,100184.41
2018-06-01T00:53:55.138Z,100181.03
2018-06-01T00:55:12.405Z,100190.17
2018-06-01T00:56:18.572Z,100195.34
2018-06-01T00:57:24.927Z,100194.80
2018-06-01T00:58:31.239Z,100199.11
2018-06-01T00:59:39.268Z,100194.95
2018-06-01T01:00:45.571Z,100192.16
2018-06-01T01:01:53.811Z,100194.45
2018-06-01T01:03:00.120Z,100196.98
2018-06-01T01:04:06.486Z,100193.25
2018-06-01T01:05:12.757Z,100200.56
2018-06-01T01:06:19.093Z,100199.70
2018-06-01T01:07:25.715Z,100198.59
2018-06-01T01:08:31.793Z,100198.86
2018-06-01T01:09:37.935Z,100205.90
2018-06-01T01:10:44.087Z,100201.84
2018-06-01T01:11:50.661Z,100203.92
2018-06-01T01:12:56.765Z,100207.50
2018-06-01T01:14:03.249Z,100212.94
2018-06-01T01:15:09.240Z,100207.75
2018-06-01T01:16:15.579Z,100207.55
2018-06-01T01:17:21.238Z,100215.14
2018-06-01T01:18:27.616Z,100217.25
2018-06-01T01:19:33.617Z,100210.64
2018-06-01T01:20:39.683Z,100211.67
2018-06-01T01:21:46.646Z,100210.83
2018-06-01T01:22:53.341Z,100208.73
2018-06-01T01:23:59.687Z,100210.27
2018-06-01T01:25:05.941Z,100212.98
2018-06-01T01:26:11.987Z,100214.75
2018-06-01T01:27:18.337Z,100214.97
2018-06-01T01:28:24.585Z,100215.45
2018-06-01T01:29:30.997Z,100211.52
2018-06-01T01:30:37.526Z,100215.45
2018-06-01T01:31:43.508Z,100211.97
2018-06-01T01:32:49.835Z,100215.55
2018-06-01T01:33:56.196Z,100219.33
2018-06-01T01:35:02.456Z,100215.00
2018-06-01T01:36:08.783Z,100219.76
2018-06-01T01:37:14.804Z,100218.77
2018-06-01T01:38:20.817Z,100217.45
2018-06-01T01:39:27.126Z,100221.08
2018-06-01T01:40:33.235Z,100214.00
2018-06-01T01:41:39.246Z,100217.02
2018-06-01T01:42:45.515Z,100212.78
2018-06-01T01:43:51.554Z,100211.59
2018-06-01T01:44:57.535Z,100212.98
2018-06-01T01:46:03.853Z,100217.17
2018-06-01T01:47:09.851Z,100210.41
2018-06-01T01:48:15.871Z,100212.94
2018-06-01T01:49:22.226Z,100215.93
2018-06-01T01:50:28.476Z,100215.26
2018-06-01T01:51:34.895Z,100211.26
2018-06-01T01:52:41.023Z,100206.17
2018-06-01T01:53:47.464Z,100213.36
2018-06-01T01:54:53.747Z,100214.75
2018-06-01T01:56:00.065Z,100208.29
2018-06-01T01:57:07.253Z,100212.98
2018-06-01T01:58:14.872Z,100206.05
2018-06-01T01:59:21.264Z,100209.08
2018-06-01T02:00:27.548Z,100210.41
2018-06-01T02:01:33.843Z,100209.41
2018-06-01T02:02:40.160Z,100203.39
2018-06-01T02:03:46.757Z,100211.30
2018-06-01T02:04:53.140Z,100210.33
2018-06-01T02:06:01.409Z,100210.19
2018-06-01T02:07:07.800Z,100209.22
2018-06-01T02:08:13.872Z,100209.50
2018-06-01T02:09:20.519Z,100210.95
2018-06-01T02:10:27.505Z,100209.41
2018-06-01T02:11:33.829Z,100207.30
2018-06-01T02:12:39.843Z,100208.52
2018-06-01T02:13:47.005Z,100209.00
2018-06-01T02:14:53.002Z,100207.73
2018-06-01T02:15:59.000Z,100201.83
2018-06-01T02:17:04.973Z,100201.40
2018-06-01T02:18:12.272Z,100207.82
2018-06-01T02:19:18.351Z,100207.54
2018-06-01T02:20:27.524Z,100203.37
2018-06-01T02:21:33.468Z,100208.78
2018-06-01T02:22:39.713Z,100205.63
2018-06-01T02:23:45.705Z,100205.50
2018-06-01T02:24:52.468Z,100204.59
2018-06-01T02:25:58.853Z,100208.66
2018-06-01T02:27:05.331Z,100203.53
2018-06-01T02:28:11.557Z,100205.30
2018-06-01T02:29:18.443Z,100202.27
2018-06-01T02:30:25.007Z,100202.04
2018-06-01T02:31:31.343Z,100203.88
2018-06-01T02:32:37.650Z,100202.87
2018-06-01T02:33:43.925Z,100205.41
2018-06-01T02:34:50.869Z,100206.67
2018-06-01T02:35:57.201Z,100205.28
2018-06-01T02:37:03.515Z,100202.55
2018-06-01T02:38:10.449Z,100203.02
2018-06-01T02:39:16.786Z,100201.84
2018-06-01T02:40:22.781Z,100201.53
2018-06-01T02:41:29.048Z,100197.84
2018-06-01T02:42:35.592Z,100201.05
2018-06-01T02:43:41.898Z,100197.41
2018-06-01T02:44:48.754Z,100199.86
2018-06-01T02:45:55.690Z,100202.33
2018-06-01T02:47:02.017Z,100196.64
2018-06-01T02:48:08.279Z,100201.42
2018-06-01T02:49:14.294Z,100193.94
2018-06-01T02:50:20.615Z,100200.44
2018-06-01T02:51:26.908Z,100199.01
2018-06-01T02:52:33.214Z,100200.22
2018-06-01T02:53:40.278Z,100197.76
2018-06-01T02:54:47.833Z,100202.83
2018-06-01T02:55:54.125Z,100200.63
2018-06-01T02:57:00.441Z,100198.69
2018-06-01T02:58:06.747Z,100195.11
2018-06-01T02:59:13.056Z,100198.88
2018-06-01T03:00:19.369Z,100194.77
2018-06-01T03:01:25.742Z,100195.16
2018-06-01T03:02:32.066Z,100199.52
2018-06-01T03:03:38.386Z,100195.95
2018-06-01T03:04:44.722Z,100201.72
2018-06-01T03:05:50.697Z,100192.38
2018-06-01T03:07:12.085Z,100195.36
2018-06-01T03:08:18.319Z,100195.64
2018-06-01T03:09:24.707Z,100194.17
2018-06-01T03:10:36.565Z,100196.84
2018-06-01T03:11:42.622Z,100193.42
2018-06-01T03:12:48.622Z,100192.00
2018-06-01T03:13:54.949Z,100198.41
2018-06-01T03:15:01.838Z,100195.69
2018-06-01T03:16:08.945Z,100202.70
2018-06-01T03:17:15.588Z,100198.70
2018-06-01T03:18:21.529Z,100199.87
2018-06-01T03:19:27.845Z,100206.08
2018-06-01T03:20:34.121Z,100212.32
2018-06-01T03:21:40.447Z,100210.64
2018-06-01T03:22:46.756Z,100214.30
2018-06-01T03:23:53.060Z,100212.88
2018-06-01T03:24:59.406Z,100215.62
2018-06-01T03:26:05.009Z,100216.87
2018-06-01T03:27:11.044Z,100215.75
2018-06-01T03:28:17.841Z,100222.94
2018-06-01T03:29:24.591Z,100218.85
2018-06-01T03:30:30.871Z,100213.23
2018-06-01T03:31:38.057Z,100219.17
2018-06-01T03:32:44.836Z,100220.79
2018-06-01T03:33:51.112Z,100222.70
2018-06-01T03:34:57.533Z,100218.83
2018-06-01T03:36:03.840Z,100216.50
2018-06-01T03:37:10.140Z,100212.11
2018-06-01T03:38:16.456Z,100219.45
2018-06-01T03:39:22.879Z,100221.44
2018-06-01T03:40:29.229Z,100224.65
2018-06-01T03:41:35.501Z,100223.11
2018-06-01T03:42:41.811Z,100221.16
2018-06-01T03:43:48.133Z,100222.20
2018-06-01T03:44:54.465Z,100222.77
2018-06-01T03:46:00.447Z,100218.44
2018-06-01T03:47:06.933Z,100219.21
2018-06-01T03:48:13.178Z,100215.05
2018-06-01T03:49:19.512Z,100215.12
2018-06-01T03:50:25.861Z,100212.95
2018-06-01T03:51:32.107Z,100215.27
2018-06-01T03:52:38.409Z,100213.10
2018-06-01T03:53:44.734Z,100211.89
2018-06-01T03:54:51.169Z,100212.80
2018-06-01T03:55:59.328Z,100215.75
2018-06-01T03:57:05.312Z,100216.62
2018-06-01T03:58:11.644Z,100216.97
2018-06-01T03:59:17.601Z,100220.39
2018-06-01T04:00:25.193Z,100220.59
2018-06-01T04:01:31.476Z,100224.25
2018-06-01T04:02:38.700Z,100226.71
2018-06-01T04:03:44.960Z,100213.16
2018-06-01T04:04:51.357Z,100220.59
2018-06-01T04:05:57.647Z,100218.28
2018-06-01T04:07:03.944Z,100218.84
2018-06-01T04:08:10.252Z,100220.52
2018-06-01T04:09:16.578Z,100216.85
2018-06-01T04:10:22.900Z,100220.49
2018-06-01T04:11:29.190Z,100223.59
2018-06-01T04:12:35.552Z,100223.66
2018-06-01T04:13:41.858Z,100223.75
2018-06-01T04:14:48.174Z,100218.84
2018-06-01T04:15:54.482Z,100221.14
2018-06-01T04:17:01.032Z,100220.66
2018-06-01T04:18:07.405Z,100213.92
2018-06-01T04:19:13.690Z,100216.95
2018-06-01T04:20:20.338Z,100220.95
2018-06-01T04:21:26.716Z,100219.25
2018-06-01T04:22:33.038Z,100225.21
2018-06-01T04:23:39.504Z,100227.59
2018-06-01T04:24:45.791Z,100231.27
2018-06-01T04:25:53.010Z,100232.94
2018-06-01T04:26:59.435Z,100237.37
2018-06-01T04:28:05.749Z,100243.42
2018-06-01T04:29:12.055Z,100247.79
2018-06-01T04:30:20.440Z,100252.58
2018-06-01T04:31:26.705Z,100253.48
2018-06-01T04:32:33.771Z,100258.47
2018-06-01T04:33:40.045Z,100258.52
2018-06-01T04:34:46.381Z,100264.63
2018-06-01T04:35:52.692Z,100270.21
2018-06-01T04:36:58.982Z,100271.55
2018-06-01T04:38:05.296Z,100274.28
2018-06-01T04:39:12.254Z,100273.06
2018-06-01T04:40:18.737Z,100278.16
2018-06-01T04:41:25.060Z,100271.62
2018-06-01T04:42:32.643Z,100279.77
2018-06-01T04:43:38.797Z,100287.69
2018-06-01T04:44:49.493Z,100284.47
2018-06-01T04:45:56.153Z,100293.11
2018-06-01T04:47:02.472Z,100294.93
2018-06-01T04:48:08.739Z,100294.59
2018-06-01T04:49:15.157Z,100301.90
2018-06-01T04:50:21.802Z,100299.20
2018-06-01T04:51:28.085Z,100288.98
2018-06-01T04:52:35.805Z,100293.50
2018-06-01T04:53:42.400Z,100295.22
2018-06-01T04:54:49.593Z,100290.16
2018-06-01T04:55:56.158Z,100291.64
2018-06-01T04:57:02.500Z,100284.86
2018-06-01T04:58:13.146Z,100279.53
2018-06-01T04:59:22.243Z,100278.92
2018-06-01T05:00:28.697Z,100281.14
2018-06-01T05:01:36.175Z,100290.63
2018-06-01T05:02:42.618Z,100289.20
2018-06-01T05:03:48.909Z,100296.81
2018-06-01T05:04:55.330Z,100301.81
2018-06-01T05:06:01.632Z,100299.23
2018-06-01T05:07:07.905Z,100304.05
2018-06-01T05:08:14.236Z,100305.81
2018-06-01T05:09:20.549Z,100308.63
2018-06-01T05:10:26.914Z,100312.58
2018-06-01T05:11:33.185Z,100320.82
2018-06-01T05:12:39.525Z,100322.78
2018-06-01T05:13:45.793Z,100327.47
2018-06-01T05:14:51.453Z,100337.30
2018-06-01T05:15:57.508Z,100338.04
2018-06-01T05:17:03.813Z,100342.89
2018-06-01T05:18:10.124Z,100349.54
2018-06-01T05:19:16.425Z,100354.24
2018-06-01T05:20:22.767Z,100361.77
2018-06-01T05:21:29.203Z,100361.19
2018-06-01T05:22:36.187Z,100364.55
2018-06-01T05:23:42.488Z,100361.48
2018-06-01T05:24:48.812Z,100367.06
2018-06-01T05:25:57.344Z,100354.78
2018-06-01T05:27:03.745Z,100348.50
2018-06-01T05:28:11.007Z,100351.50
2018-06-01T05:29:17.345Z,100350.55
2018-06-01T05:30:23.643Z,100343.45
2018-06-01T05:31:29.936Z,100342.09
2018-06-01T05:32:36.276Z,100341.66
2018-06-01T05:33:42.582Z,100342.31
2018-06-01T05:34:48.900Z,100341.84
2018-06-01T05:35:55.245Z,100342.63
2018-06-01T05:37:02.273Z,100339.70
2018-06-01T05:38:08.583Z,100337.88
2018-06-01T05:39:15.432Z,100341.09
2018-06-01T05:40:21.941Z,100337.04
2018-06-01T05:41:29.193Z,100335.45
2018-06-01T05:42:36.673Z,100349.08
2018-06-01T05:43:43.860Z,100356.13
2018-06-01T05:44:50.080Z,100362.30
2018-06-01T05:45:56.762Z,100370.22
2018-06-01T05:47:03.157Z,100373.80
2018-06-01T05:48:11.666Z,100380.82
2018-06-01T05:49:18.764Z,100380.08
2018-06-01T05:50:25.260Z,100381.48
2018-06-01T05:51:31.539Z,100386.50
2018-06-01T05:52:38.515Z,100378.22
2018-06-01T05:53:45.286Z,100380.16
2018-06-01T05:54:51.567Z,100377.68
2018-06-01T05:55:57.566Z,100371.63
2018-06-01T05:57:03.948Z,100363.94
2018-06-01T05:58:12.111Z,100360.49
2018-06-01T05:59:18.371Z,100367.43
2018-06-01T06:00:25.299Z,100363.03
2018-06-01T06:01:31.594Z,100367.59
2018-06-01T06:02:37.920Z,100370.31
2018-06-01T06:03:44.185Z,100375.02
2018-06-01T06:04:50.428Z,100381.24
2018-06-01T06:05:57.513Z,100384.05
2018-06-01T06:07:03.832Z,100393.48
2018-06-01T06:08:10.157Z,100399.34
2018-06-01T06:09:17.277Z,100402.67
2018-06-01T06:10:23.556Z,100412.03
2018-06-01T06:11:32.580Z,100410.02
2018-06-01T06:12:40.671Z,100414.95
2018-06-01T06:13:47.052Z,100417.70
2018-06-01T06:14:53.381Z,100414.41
2018-06-01T06:16:01.032Z,100421.78
2018-06-01T06:17:07.356Z,100421.77
2018-06-01T06:18:13.374Z,100415.69
2018-06-01T06:19:19.764Z,100416.67
2018-06-01T06:20:26.710Z,100413.42
2018-06-01T06:21:32.994Z,100404.97
2018-06-01T06:22:39.300Z,100401.88
2018-06-01T06:23:45.553Z,100406.70
2018-06-01T06:24:55.220Z,100395.49
2018-06-01T06:26:02.181Z,100406.14
2018-06-01T06:27:08.435Z,100411.45
2018-06-01T06:28:14.720Z,100415.08
2018-06-01T06:29:21.316Z,100424.32
2018-06-01T06:30:27.570Z,100428.19
2018-06-01T06:31:33.879Z,100429.39
